Bookmark and Share
Track history (hours):
 

Ty Lotus

Last reported at 2014-Apr-20 18:28 UTC. Time now 2014-Apr-20 19:10 UTC.
Position N 35°40' E 139°58'.

Length 82 m; draft 6 m.

Type: Cargo ship. MMSI: 440324000.

NotesDate/timePositionNaut miles runAvg speedWind from/ knotsBaromVisibWave heightAir tempDewpointWater temp
2014-Apr-20 18:28N 35°40' E 139°58'0 0.0
2014-Apr-20 17:28N 35°40' E 139°58'0 0.0
2014-Apr-20 16:31N 35°40' E 139°58'0 0.0
2014-Apr-20 15:28N 35°40' E 139°58'0 0.0
2014-Apr-20 14:13N 35°40' E 139°58'0 0.0
2014-Apr-20 13:31N 35°40' E 139°58'0 0.0
2014-Apr-20 12:22N 35°40' E 139°58'0 0.0
2014-Apr-20 11:19N 35°40' E 139°58'0 0.0
2014-Apr-20 10:31N 35°40' E 139°58'0 0.0
2014-Apr-20 09:25N 35°40' E 139°58'0 0.0
2014-Apr-20 08:16N 35°40' E 139°58'0 0.0
2014-Apr-20 07:31N 35°40' E 139°58'0 0.0
2014-Apr-20 06:25N 35°40' E 139°58'0 0.0
2014-Apr-20 05:22N 35°40' E 139°58'0 0.0
2014-Apr-20 04:22N 35°40' E 139°58'0 0.0
2014-Apr-20 03:28N 35°40' E 139°58'0 0.0
2014-Apr-20 02:19N 35°40' E 139°58'0 0.0
2014-Apr-20 01:22N 35°40' E 139°58'0 0.0
2014-Apr-20 00:33N 35°40' E 139°58'0 0.0
2014-Apr-19 23:31N 35°40' E 139°58'0 0.0
2014-Apr-19 22:28N 35°40' E 139°58'0 0.0
2014-Apr-19 21:22N 35°40' E 139°58'0 0.0
2014-Apr-19 20:07N 35°40' E 139°58'0 0.0
2014-Apr-19 19:25N 35°40' E 139°58'0 0.0
2014-Apr-19 18:19N 35°40' E 139°58'0 0.0
2014-Apr-19 17:28N 35°40' E 139°58'0 0.0
2014-Apr-19 16:28N 35°40' E 139°58'0 0.0
2014-Apr-19 15:19N 35°40' E 139°58'0 0.0
2014-Apr-19 14:10N 35°40' E 139°58'0 0.0
2014-Apr-19 13:28N 35°40' E 139°58'0 0.0
2014-Apr-19 12:25N 35°40' E 139°58'0 0.0
2014-Apr-19 11:25N 35°40' E 139°58'0 0.0
2014-Apr-19 09:10N 35°40' E 139°58'0 0.0
2014-Apr-19 08:25N 35°40' E 139°58'0 0.0
2014-Apr-19 07:28N 35°40' E 139°58'0 0.0
2014-Apr-19 06:25N 35°40' E 139°58'0 0.0
2014-Apr-19 05:25N 35°40' E 139°58'2 2.3
2014-Apr-19 04:33N 35°39' E 139°59'9 9.2
2014-Apr-19 03:33N 35°30' E 139°53'9 9.5
2014-Apr-19 02:33N 35°23' E 139°46'8 7.9
2014-Apr-19 01:32N 35°15' E 139°47'9 8.7
2014-Apr-19 00:33N 35°07' E 139°45'10 8.9
2014-Apr-18 23:29N 35°02' E 139°35'1010.1
2014-Apr-18 22:31N 35°11' E 139°29'8 8.7
2014-Apr-18 21:33N 35°13' E 139°19'9 8.7
2014-Apr-18 20:28N 35°05' E 139°14'10 9.7
2014-Apr-18 19:28N 34°55' E 139°12'9 9.0
2014-Apr-18 18:30N 34°47' E 139°08'210 8.3
2014-Apr-17 17:14N 33°58' E 135°00'910.8
2014-Apr-17 16:26N 34°07' E 134°59'910.7
2014-Apr-17 15:33N 34°16' E 134°59'10 9.5
2014-Apr-17 14:31N 34°26' E 135°01'9 9.0
2014-Apr-17 13:33N 34°35' E 135°03'8 5.9
2014-Apr-17 12:13N 34°35' E 134°54'242 9.4
2014-Apr-16 10:26N 33°50' E 130°06'  

Dump ship's entire track history

sailing weather and tide predictions

Ty Lotus — DSNU7 — position and weather